Time;durP1;ratioP1;P1;durP2;ratioP2;P2;SDS_P1;SDS_P2;PMS_P1;PMS_P2;Temp;Humidity;BMP_temperature;BMP_pressure;BME280_temperature;BME280_humidity;BME280_pressure;Samples;Min_cycle;Max_cycle;Signal;HPM_P1;HPM_P2
2021/06/28 00:04:11;;;;;;;8.20;6.13;;;;;;;;;;10530987;28;20167;-54
2021/06/28 00:09:13;;;;;;;8.93;6.18;;;;;;;;;;10530216;28;20554;-54
2021/06/28 00:14:14;;;;;;;6.70;5.88;;;;;;;;;;10529000;28;20051;-53
2021/06/28 00:19:16;;;;;;;11.00;6.30;;;;;;;;;;10505892;28;20135;-54
2021/06/28 00:24:17;;;;;;;9.63;6.70;;;;;;;;;;10529286;28;20123;-52
2021/06/28 00:29:20;;;;;;;7.38;6.30;;;;;;;;;;10529735;28;20047;-53
2021/06/28 00:34:22;;;;;;;8.52;7.22;;;;;;;;;;10528980;28;20050;-50
2021/06/28 00:39:24;;;;;;;9.30;6.75;;;;;;;;;;10530183;28;20054;-54
2021/06/28 00:44:25;;;;;;;10.00;6.75;;;;;;;;;;10528099;28;20058;-54
2021/06/28 00:49:27;;;;;;;10.18;6.22;;;;;;;;;;10519903;28;20044;-54
2021/06/28 00:54:28;;;;;;;10.50;6.70;;;;;;;;;;10529216;28;20040;-53
2021/06/28 00:59:31;;;;;;;8.75;6.35;;;;;;;;;;10528768;28;20048;-50
2021/06/28 01:04:32;;;;;;;10.23;6.55;;;;;;;;;;10527091;28;20062;-48
2021/06/28 01:09:36;;;;;;;7.63;6.40;;;;;;;;;;10527578;28;20123;-54
2021/06/28 01:14:40;;;;;;;8.93;6.10;;;;;;;;;;10527534;28;20477;-54
2021/06/28 01:19:49;;;;;;;8.18;6.38;;;;;;;;;;10526965;28;20054;-54
2021/06/28 01:24:52;;;;;;;9.03;6.00;;;;;;;;;;10527774;28;20119;-53
2021/06/28 01:29:54;;;;;;;7.70;6.55;;;;;;;;;;10527352;28;20564;-54
2021/06/28 01:34:56;;;;;;;9.70;6.70;;;;;;;;;;10528626;28;20135;-50
2021/06/28 01:39:59;;;;;;;7.43;6.32;;;;;;;;;;10527691;28;20135;-53
2021/06/28 01:45:00;;;;;;;9.20;7.07;;;;;;;;;;10509050;28;20128;-54
2021/06/28 01:50:03;;;;;;;10.43;6.70;;;;;;;;;;10527052;28;20139;-54
2021/06/28 01:55:07;;;;;;;11.75;8.48;;;;;;;;;;10527879;28;20461;-53
2021/06/28 02:00:09;;;;;;;11.18;7.45;;;;;;;;;;10526979;28;20047;-54
2021/06/28 02:05:12;;;;;;;9.85;6.43;;;;;;;;;;10534334;28;20044;-54
2021/06/28 02:10:13;;;;;;;8.93;6.65;;;;;;;;;;10533843;28;20079;-53
2021/06/28 02:15:16;;;;;;;11.95;6.97;;;;;;;;;;10534599;28;20036;-54
2021/06/28 02:20:18;;;;;;;9.48;6.63;;;;;;;;;;10541283;28;20079;-54
2021/06/28 02:25:20;;;;;;;11.27;6.63;;;;;;;;;;10518801;28;20580;-54
2021/06/28 02:30:22;;;;;;;11.45;8.30;;;;;;;;;;10541021;28;20058;-53
2021/06/28 02:35:23;;;;;;;9.15;6.50;;;;;;;;;;10541030;28;20036;-54
2021/06/28 02:40:25;;;;;;;7.70;6.30;;;;;;;;;;10541429;28;20127;-53
2021/06/28 02:45:26;;;;;;;10.27;6.80;;;;;;;;;;10541193;28;20132;-54
2021/06/28 02:50:28;;;;;;;11.68;7.10;;;;;;;;;;10525822;28;20444;-53
2021/06/28 02:55:30;;;;;;;11.07;7.38;;;;;;;;;;10540672;28;20048;-55
2021/06/28 03:00:31;;;;;;;14.65;6.97;;;;;;;;;;10539911;28;20079;-54
2021/06/28 03:05:33;;;;;;;10.25;6.40;;;;;;;;;;10535556;28;20056;-53
2021/06/28 03:10:36;;;;;;;8.60;6.80;;;;;;;;;;10533846;28;20051;-51
2021/06/28 03:15:37;;;;;;;7.65;6.80;;;;;;;;;;10531765;28;20040;-52
2021/06/28 03:20:40;;;;;;;9.00;7.35;;;;;;;;;;10530393;28;20547;-49
2021/06/28 03:25:41;;;;;;;9.82;6.60;;;;;;;;;;10532120;28;20075;-54
2021/06/28 03:30:43;;;;;;;13.82;7.10;;;;;;;;;;10531724;28;20416;-54
2021/06/28 03:35:44;;;;;;;12.63;7.07;;;;;;;;;;10531615;28;20051;-50
2021/06/28 03:40:46;;;;;;;10.38;6.95;;;;;;;;;;10531639;28;20131;-54
2021/06/28 03:45:48;;;;;;;8.43;6.78;;;;;;;;;;10531094;28;20040;-53
2021/06/28 03:50:52;;;;;;;10.95;7.70;;;;;;;;;;10530104;28;20048;-54
2021/06/28 03:55:54;;;;;;;9.35;7.40;;;;;;;;;;10512784;28;20127;-53
2021/06/28 04:00:55;;;;;;;8.55;7.20;;;;;;;;;;10530487;28;20094;-52
2021/06/28 04:06:00;;;;;;;9.18;7.28;;;;;;;;;;10530812;28;20443;-53
2021/06/28 04:11:02;;;;;;;12.77;7.18;;;;;;;;;;10530137;28;20139;-51
2021/06/28 04:16:04;;;;;;;10.07;6.82;;;;;;;;;;10529061;28;20052;-54
2021/06/28 04:21:06;;;;;;;9.15;6.85;;;;;;;;;;10522678;28;20055;-57
2021/06/28 04:26:08;;;;;;;11.30;7.35;;;;;;;;;;10528697;28;20080;-49
2021/06/28 04:31:09;;;;;;;10.30;7.35;;;;;;;;;;10528455;28;20062;-54
2021/06/28 04:36:11;;;;;;;10.18;7.47;;;;;;;;;;10529250;28;20047;-53
2021/06/28 04:41:12;;;;;;;13.07;6.95;;;;;;;;;;10513437;28;20101;-53
2021/06/28 04:46:14;;;;;;;8.65;6.90;;;;;;;;;;10517342;28;20147;-54
2021/06/28 04:51:16;;;;;;;10.55;6.85;;;;;;;;;;10513603;28;20105;-50
2021/06/28 04:56:17;;;;;;;7.63;6.00;;;;;;;;;;10524721;28;20582;-53
2021/06/28 05:01:19;;;;;;;10.90;5.95;;;;;;;;;;10526468;28;20427;-54
2021/06/28 05:06:21;;;;;;;10.35;6.07;;;;;;;;;;10495334;28;20111;-52
2021/06/28 05:11:23;;;;;;;7.80;4.72;;;;;;;;;;10404091;28;20087;-52
2021/06/28 05:16:24;;;;;;;15.00;5.60;;;;;;;;;;10410138;28;20054;-52
2021/06/28 05:21:26;;;;;;;10.65;5.97;;;;;;;;;;10435036;28;20119;-54
2021/06/28 05:26:27;;;;;;;10.05;6.00;;;;;;;;;;10427322;28;20049;-51
2021/06/28 05:31:29;;;;;;;9.20;6.03;;;;;;;;;;10433085;28;20110;-53
2021/06/28 05:36:31;;;;;;;10.15;6.50;;;;;;;;;;10441544;28;20409;-51
2021/06/28 05:41:32;;;;;;;11.52;6.18;;;;;;;;;;10438904;28;20053;-54
2021/06/28 05:46:34;;;;;;;11.57;6.10;;;;;;;;;;10427614;28;20080;-59
2021/06/28 05:51:35;;;;;;;10.13;5.93;;;;;;;;;;10408739;28;20559;-60
2021/06/28 05:56:38;;;;;;;7.63;6.00;;;;;;;;;;10412311;28;20041;-60
2021/06/28 06:01:39;;;;;;;8.43;5.97;;;;;;;;;;10411647;28;20136;-60
2021/06/28 06:06:41;;;;;;;11.48;6.15;;;;;;;;;;10411762;28;20045;-60
2021/06/28 06:11:43;;;;;;;7.20;5.20;;;;;;;;;;10411212;28;20148;-60
2021/06/28 06:16:44;;;;;;;8.65;5.80;;;;;;;;;;10412254;28;20564;-60
2021/06/28 06:21:46;;;;;;;14.20;5.63;;;;;;;;;;10410957;28;20049;-60
2021/06/28 06:26:48;;;;;;;11.18;5.13;;;;;;;;;;10410519;28;20401;-60
2021/06/28 06:31:49;;;;;;;9.50;5.35;;;;;;;;;;10410643;28;20481;-60
2021/06/28 06:36:55;;;;;;;9.80;6.18;;;;;;;;;;10410788;28;20481;-60
2021/06/28 06:41:57;;;;;;;9.73;5.85;;;;;;;;;;10410520;28;20640;-60
2021/06/28 06:46:58;;;;;;;7.97;6.20;;;;;;;;;;10410613;28;20111;-61
2021/06/28 06:52:00;;;;;;;8.38;5.90;;;;;;;;;;10409871;28;20055;-60
2021/06/28 06:57:02;;;;;;;12.52;5.80;;;;;;;;;;10410342;28;20483;-60
2021/06/28 07:02:04;;;;;;;9.23;6.18;;;;;;;;;;10419846;28;20096;-60
2021/06/28 07:07:06;;;;;;;11.05;5.60;;;;;;;;;;10413884;28;20041;-61
2021/06/28 07:12:07;;;;;;;11.30;6.28;;;;;;;;;;10419331;28;20618;-61
2021/06/28 07:17:09;;;;;;;9.80;5.88;;;;;;;;;;10396121;28;20042;-61
2021/06/28 07:22:11;;;;;;;10.27;5.80;;;;;;;;;;10391054;28;20049;-61
2021/06/28 07:27:12;;;;;;;6.60;5.70;;;;;;;;;;10389508;28;20042;-61
2021/06/28 07:32:14;;;;;;;10.52;6.05;;;;;;;;;;10408537;28;20144;-61
2021/06/28 07:37:16;;;;;;;8.00;5.35;;;;;;;;;;10406023;28;20393;-61
2021/06/28 07:42:17;;;;;;;8.93;5.20;;;;;;;;;;10450924;28;20067;-61
2021/06/28 07:47:19;;;;;;;10.10;5.88;;;;;;;;;;10427855;28;20076;-61
2021/06/28 07:52:20;;;;;;;13.55;5.70;;;;;;;;;;10421343;28;20136;-60
2021/06/28 07:57:22;;;;;;;9.80;5.30;;;;;;;;;;10412949;28;20041;-61
2021/06/28 08:02:23;;;;;;;9.90;5.00;;;;;;;;;;10430489;28;20520;-60
2021/06/28 08:07:25;;;;;;;10.52;5.40;;;;;;;;;;10410232;28;20497;-61
2021/06/28 08:12:35;;;;;;;7.10;5.32;;;;;;;;;;10408948;28;20053;-61
2021/06/28 08:17:37;;;;;;;7.70;5.20;;;;;;;;;;10423716;28;20052;-61
2021/06/28 08:22:38;;;;;;;9.10;5.53;;;;;;;;;;10433781;28;20138;-61
2021/06/28 08:27:40;;;;;;;7.43;4.60;;;;;;;;;;10411442;28;20047;-61
2021/06/28 08:32:42;;;;;;;8.23;4.80;;;;;;;;;;10388919;28;20063;-61
2021/06/28 08:37:43;;;;;;;8.98;5.00;;;;;;;;;;10424236;28;20045;-61
2021/06/28 08:42:45;;;;;;;9.30;4.40;;;;;;;;;;10436088;28;20512;-61
2021/06/28 08:47:46;;;;;;;9.48;3.95;;;;;;;;;;10428903;28;20254;-61
2021/06/28 08:52:48;;;;;;;6.30;3.80;;;;;;;;;;10432860;28;20136;-61
2021/06/28 08:57:50;;;;;;;7.43;3.97;;;;;;;;;;10428640;28;20037;-61
2021/06/28 09:02:53;;;;;;;7.85;3.47;;;;;;;;;;10426398;28;20156;-60
2021/06/28 09:08:10;;;;;;;6.87;3.57;;;;;;;;;;10406511;28;20336;-61
2021/06/28 09:13:11;;;;;;;6.72;3.35;;;;;;;;;;10427228;28;20089;-61
2021/06/28 09:18:23;;;;;;;5.45;3.35;;;;;;;;;;10425858;28;20052;-61
2021/06/28 09:23:26;;;;;;;5.20;3.00;;;;;;;;;;10416715;28;20433;-61
2021/06/28 09:28:36;;;;;;;6.93;3.60;;;;;;;;;;10432392;28;20085;-61
2021/06/28 09:33:38;;;;;;;6.40;3.20;;;;;;;;;;10426132;28;20136;-61
2021/06/28 09:38:39;;;;;;;7.32;3.47;;;;;;;;;;10430709;28;20116;-61
2021/06/28 09:43:41;;;;;;;7.38;3.17;;;;;;;;;;10405175;28;20095;-61
2021/06/28 09:48:46;;;;;;;8.98;3.10;;;;;;;;;;10432611;28;20055;-60
2021/06/28 09:53:49;;;;;;;5.85;3.05;;;;;;;;;;10422425;28;20049;-60
2021/06/28 09:58:50;;;;;;;6.32;3.47;;;;;;;;;;10418026;28;20049;-61
2021/06/28 10:03:54;;;;;;;4.43;3.10;;;;;;;;;;10413674;28;20053;-60
2021/06/28 10:09:05;;;;;;;4.38;3.10;;;;;;;;;;10415886;28;20104;-61
2021/06/28 10:14:07;;;;;;;3.83;2.60;;;;;;;;;;10441695;28;20128;-61
2021/06/28 10:19:09;;;;;;;3.53;2.50;;;;;;;;;;10429998;28;20136;-61
2021/06/28 10:24:11;;;;;;;8.13;2.78;;;;;;;;;;10415754;28;20256;-61
2021/06/28 10:29:12;;;;;;;4.30;2.70;;;;;;;;;;10418375;28;20430;-61
2021/06/28 10:34:14;;;;;;;6.15;2.50;;;;;;;;;;10424659;28;20057;-61
2021/06/28 10:39:25;;;;;;;10.13;2.90;;;;;;;;;;10443029;28;20053;-61
2021/06/28 10:44:44;;;;;;;6.13;2.50;;;;;;;;;;10439008;28;20041;-61
2021/06/28 10:49:50;;;;;;;4.38;2.50;;;;;;;;;;10411429;28;20332;-61
2021/06/28 10:54:51;;;;;;;3.30;2.10;;;;;;;;;;10438054;28;20465;-61
2021/06/28 10:59:54;;;;;;;3.05;2.08;;;;;;;;;;10446547;28;20128;-61
2021/06/28 11:04:56;;;;;;;4.55;2.30;;;;;;;;;;10420799;28;20049;-61
2021/06/28 11:09:57;;;;;;;2.83;2.00;;;;;;;;;;10425059;28;20055;-61
2021/06/28 11:15:18;;;;;;;4.25;2.20;;;;;;;;;;10419274;28;20059;-61
2021/06/28 11:20:32;;;;;;;3.53;2.17;;;;;;;;;;10441264;28;20045;-61
2021/06/28 11:25:56;;;;;;;4.30;2.10;;;;;;;;;;10421864;28;20508;-61
2021/06/28 11:30:59;;;;;;;2.50;1.75;;;;;;;;;;10422805;28;20100;-61
2021/06/28 11:36:01;;;;;;;4.25;1.92;;;;;;;;;;10424173;28;20481;-61
2021/06/28 11:41:13;;;;;;;5.30;2.05;;;;;;;;;;10441611;28;20381;-61
2021/06/28 11:46:16;;;;;;;4.38;2.00;;;;;;;;;;10418322;28;20059;-61
2021/06/28 11:51:21;;;;;;;4.82;2.20;;;;;;;;;;10440834;28;20061;-61
2021/06/28 11:56:30;;;;;;;5.70;2.50;;;;;;;;;;10424773;28;20057;-61
2021/06/28 12:01:31;;;;;;;6.47;2.72;;;;;;;;;;10432749;28;20060;-61
2021/06/28 12:06:35;;;;;;;6.80;2.80;;;;;;;;;;10418113;28;20053;-61
2021/06/28 12:11:56;;;;;;;5.13;2.45;;;;;;;;;;10431633;28;20046;-61
2021/06/28 12:16:59;;;;;;;3.45;2.42;;;;;;;;;;10425192;28;20554;-61
2021/06/28 12:22:08;;;;;;;3.45;2.50;;;;;;;;;;10438605;28;20059;-61
2021/06/28 12:27:11;;;;;;;5.20;2.70;;;;;;;;;;10443908;28;20484;-61
2021/06/28 12:32:14;;;;;;;3.53;2.40;;;;;;;;;;10435892;28;20089;-61
2021/06/28 12:37:23;;;;;;;3.60;2.30;;;;;;;;;;10442349;28;20049;-61
2021/06/28 12:42:25;;;;;;;3.90;2.50;;;;;;;;;;10437673;28;20051;-61
2021/06/28 12:47:26;;;;;;;9.27;2.60;;;;;;;;;;10443424;28;20124;-61
2021/06/28 12:52:28;;;;;;;4.85;2.20;;;;;;;;;;10430011;28;20051;-61
2021/06/28 12:57:30;;;;;;;4.38;2.45;;;;;;;;;;10441836;28;20232;-61
2021/06/28 13:02:33;;;;;;;4.03;2.55;;;;;;;;;;10440233;28;20052;-61
2021/06/28 13:07:35;;;;;;;4.30;2.30;;;;;;;;;;10444541;28;20060;-61
2021/06/28 13:12:36;;;;;;;4.72;2.13;;;;;;;;;;10435768;28;20489;-61
2021/06/28 13:17:38;;;;;;;3.80;2.20;;;;;;;;;;10439427;28;20044;-61
2021/06/28 13:22:40;;;;;;;4.95;2.30;;;;;;;;;;10436337;28;20055;-61
2021/06/28 13:27:42;;;;;;;4.32;2.17;;;;;;;;;;10401335;28;20108;-61
2021/06/28 13:32:44;;;;;;;4.40;2.35;;;;;;;;;;10399496;28;20079;-61
2021/06/28 13:37:45;;;;;;;5.20;2.05;;;;;;;;;;10407626;28;20484;-61
2021/06/28 13:42:51;;;;;;;4.22;2.35;;;;;;;;;;10440314;28;20128;-61
2021/06/28 13:48:00;;;;;;;4.38;2.00;;;;;;;;;;10410498;28;20132;-61
2021/06/28 13:53:04;;;;;;;3.58;2.10;;;;;;;;;;10407022;28;20053;-61
2021/06/28 13:58:06;;;;;;;3.17;2.20;;;;;;;;;;10417926;28;20042;-61
2021/06/28 14:03:09;;;;;;;8.05;2.05;;;;;;;;;;10409694;28;20144;-62
2021/06/28 14:08:12;;;;;;;4.63;1.90;;;;;;;;;;10433738;28;20784;-61
2021/06/28 14:13:21;;;;;;;3.42;2.17;;;;;;;;;;10420511;28;20111;-62
2021/06/28 14:18:27;;;;;;;2.90;1.90;;;;;;;;;;10438450;28;20045;-61
2021/06/28 14:23:28;;;;;;;5.32;2.35;;;;;;;;;;10448612;28;20153;-61
2021/06/28 14:28:30;;;;;;;3.20;1.80;;;;;;;;;;10451947;28;20049;-62
2021/06/28 14:33:31;;;;;;;5.18;2.40;;;;;;;;;;10449732;28;20045;-61
2021/06/28 14:38:33;;;;;;;4.53;2.20;;;;;;;;;;10440733;28;20091;-61
2021/06/28 14:43:50;;;;;;;5.15;2.10;;;;;;;;;;10449921;28;20049;-61
2021/06/28 14:48:51;;;;;;;4.05;2.10;;;;;;;;;;10450333;28;20076;-61
2021/06/28 14:53:53;;;;;;;3.92;2.10;;;;;;;;;;10447563;28;20067;-62
2021/06/28 14:58:54;;;;;;;4.20;2.15;;;;;;;;;;10450148;28;20052;-61
2021/06/28 15:03:56;;;;;;;3.35;2.03;;;;;;;;;;10399737;28;20533;-61
2021/06/28 15:08:58;;;;;;;4.75;1.90;;;;;;;;;;10409758;28;20311;-64
2021/06/28 15:13:59;;;;;;;4.80;2.10;;;;;;;;;;10439071;28;20053;-62
2021/06/28 15:19:01;;;;;;;5.35;1.75;;;;;;;;;;10449311;28;20139;-61
2021/06/28 15:24:02;;;;;;;3.28;1.98;;;;;;;;;;10447981;28;20507;-61
2021/06/28 15:29:04;;;;;;;3.78;1.80;;;;;;;;;;10448948;28;20132;-62
2021/06/28 15:34:06;;;;;;;3.22;1.80;;;;;;;;;;10444000;28;20080;-61
2021/06/28 15:39:09;;;;;;;4.22;1.80;;;;;;;;;;10446145;28;20053;-61
2021/06/28 15:44:11;;;;;;;3.03;1.60;;;;;;;;;;10418494;28;21014;-61
2021/06/28 15:49:15;;;;;;;4.32;1.70;;;;;;;;;;10429716;28;20489;-61
2021/06/28 15:54:17;;;;;;;6.45;1.70;;;;;;;;;;10446088;28;20132;-61
2021/06/28 15:59:18;;;;;;;3.42;1.83;;;;;;;;;;10447265;28;20505;-61
2021/06/28 16:04:20;;;;;;;3.35;1.55;;;;;;;;;;10428993;28;20760;-61
2021/06/28 16:09:21;;;;;;;4.30;1.80;;;;;;;;;;10440320;28;20497;-61
2021/06/28 16:14:23;;;;;;;4.03;1.60;;;;;;;;;;10446607;28;20056;-62
2021/06/28 16:19:25;;;;;;;3.45;1.58;;;;;;;;;;10443249;28;20136;-61
2021/06/28 16:24:50;;;;;;;3.10;1.70;;;;;;;;;;10444044;28;20421;-61
2021/06/28 16:29:52;;;;;;;2.90;1.90;;;;;;;;;;10445296;28;20140;-61
2021/06/28 16:34:54;;;;;;;3.80;1.80;;;;;;;;;;10443485;28;20128;-61
2021/06/28 16:39:56;;;;;;;3.05;1.80;;;;;;;;;;10433565;28;20405;-61
2021/06/28 16:44:57;;;;;;;5.95;1.80;;;;;;;;;;10441173;28;20094;-61
2021/06/28 16:49:59;;;;;;;3.05;1.73;;;;;;;;;;10442848;28;20120;-60
2021/06/28 16:55:00;;;;;;;3.58;1.90;;;;;;;;;;10439083;28;20049;-61
2021/06/28 17:00:03;;;;;;;3.10;1.67;;;;;;;;;;10434176;28;20079;-61
2021/06/28 17:05:05;;;;;;;3.42;1.85;;;;;;;;;;10399963;28;20136;-61
2021/06/28 17:10:26;;;;;;;3.60;1.90;;;;;;;;;;10441917;28;20041;-61
2021/06/28 17:15:28;;;;;;;6.43;1.80;;;;;;;;;;10443006;28;20056;-61
2021/06/28 17:20:29;;;;;;;4.80;2.00;;;;;;;;;;10443146;28;20465;-61
2021/06/28 17:25:31;;;;;;;3.28;2.10;;;;;;;;;;10441422;28;20071;-61
2021/06/28 17:30:32;;;;;;;3.13;2.00;;;;;;;;;;10444104;28;20092;-61
2021/06/28 17:35:34;;;;;;;5.45;1.90;;;;;;;;;;10444356;28;20488;-61
2021/06/28 17:40:35;;;;;;;4.05;1.90;;;;;;;;;;10428132;28;20382;-61
2021/06/28 17:45:37;;;;;;;4.18;2.17;;;;;;;;;;10439602;28;20559;-61
2021/06/28 17:50:39;;;;;;;3.97;1.88;;;;;;;;;;10450683;28;20482;-61
2021/06/28 17:55:40;;;;;;;21.77;2.40;;;;;;;;;;10450293;28;20110;-61
2021/06/28 18:00:42;;;;;;;4.57;1.77;;;;;;;;;;10448108;28;20051;-61
2021/06/28 18:05:43;;;;;;;8.20;2.20;;;;;;;;;;10427437;28;20127;-60
2021/06/28 18:10:48;;;;;;;4.60;1.83;;;;;;;;;;10448962;28;20107;-61
2021/06/28 18:15:51;;;;;;;5.60;1.80;;;;;;;;;;10445101;28;20045;-61
2021/06/28 18:20:53;;;;;;;3.60;1.80;;;;;;;;;;10445940;28;20053;-61
2021/06/28 18:25:59;;;;;;;5.53;1.92;;;;;;;;;;10411629;28;20085;-61
2021/06/28 18:31:02;;;;;;;4.25;2.20;;;;;;;;;;10433588;28;20137;-61
2021/06/28 18:36:04;;;;;;;4.13;1.90;;;;;;;;;;10448852;28;20081;-62
2021/06/28 18:41:05;;;;;;;2.85;1.75;;;;;;;;;;10450947;28;20053;-61
2021/06/28 18:46:09;;;;;;;4.80;1.90;;;;;;;;;;10438151;28;20048;-61
2021/06/28 18:51:10;;;;;;;5.53;1.80;;;;;;;;;;10448024;28;20501;-61
2021/06/28 19:01:32;;;;;;;4.55;2.10;;;;;;;;;;10447957;28;20485;-61
2021/06/28 19:06:34;;;;;;;6.85;3.30;;;;;;;;;;10421681;28;20106;-61
2021/06/28 19:11:38;;;;;;;6.75;4.40;;;;;;;;;;10422610;28;20061;-62
2021/06/28 19:16:41;;;;;;;3.13;2.00;;;;;;;;;;10433033;28;20119;-61
2021/06/28 19:21:44;;;;;;;7.80;2.28;;;;;;;;;;10448309;28;20049;-62
2021/06/28 19:26:46;;;;;;;4.07;2.13;;;;;;;;;;10437790;28;20405;-61
2021/06/28 19:31:48;;;;;;;3.88;2.10;;;;;;;;;;10447530;28;20060;-61
2021/06/28 19:36:54;;;;;;;3.33;2.30;;;;;;;;;;10444322;28;20063;-62
2021/06/28 19:41:55;;;;;;;4.55;2.10;;;;;;;;;;10437075;28;20489;-62
2021/06/28 19:46:57;;;;;;;30.20;15.65;;;;;;;;;;10434875;28;20076;-61
2021/06/28 19:51:59;;;;;;;5.07;2.60;;;;;;;;;;10424167;28;20053;-61
2021/06/28 19:57:00;;;;;;;4.82;2.72;;;;;;;;;;10425729;28;20045;-62
2021/06/28 20:02:02;;;;;;;5.40;2.30;;;;;;;;;;10420581;28;20076;-61
2021/06/28 20:07:08;;;;;;;6.75;3.38;;;;;;;;;;10439044;28;20561;-61
2021/06/28 20:12:10;;;;;;;9.25;5.47;;;;;;;;;;10416433;28;20474;-61
2021/06/28 20:17:11;;;;;;;4.72;2.03;;;;;;;;;;10433741;28;20055;-61
2021/06/28 20:22:13;;;;;;;6.20;2.78;;;;;;;;;;10428025;28;20422;-61
2021/06/28 20:27:15;;;;;;;4.75;2.88;;;;;;;;;;10429296;28;20099;-61
2021/06/28 20:32:16;;;;;;;4.60;2.42;;;;;;;;;;10445254;28;20107;-61
2021/06/28 20:37:18;;;;;;;5.00;2.20;;;;;;;;;;10426555;28;20494;-61
2021/06/28 20:42:19;;;;;;;5.57;2.50;;;;;;;;;;10425557;28;20515;-53
2021/06/28 20:47:21;;;;;;;6.05;2.40;;;;;;;;;;10440826;28;20049;-53
2021/06/28 20:52:23;;;;;;;5.22;2.38;;;;;;;;;;10438173;28;20047;-53
2021/06/28 20:57:24;;;;;;;4.57;2.35;;;;;;;;;;10443359;28;20069;-52
2021/06/28 21:02:26;;;;;;;3.90;2.28;;;;;;;;;;10428910;28;20136;-51
2021/06/28 21:07:27;;;;;;;9.55;2.50;;;;;;;;;;10441382;28;20243;-49
2021/06/28 21:12:29;;;;;;;8.18;2.58;;;;;;;;;;10440193;28;20223;-54
2021/06/28 21:17:30;;;;;;;7.03;2.47;;;;;;;;;;10441134;28;20049;-54
2021/06/28 21:22:32;;;;;;;8.10;2.40;;;;;;;;;;10424421;28;20052;-53
2021/06/28 21:27:34;;;;;;;7.13;2.50;;;;;;;;;;10426073;28;20128;-51
2021/06/28 21:32:36;;;;;;;5.38;2.60;;;;;;;;;;10432767;28;20094;-53
2021/06/28 21:37:56;;;;;;;7.75;2.92;;;;;;;;;;10403143;28;20041;-54
2021/06/28 21:42:58;;;;;;;4.43;2.88;;;;;;;;;;10435853;28;20045;-48
2021/06/28 21:48:00;;;;;;;6.50;2.80;;;;;;;;;;10437107;28;20051;-52
2021/06/28 21:53:01;;;;;;;4.43;2.67;;;;;;;;;;10443124;28;20044;-51
2021/06/28 21:58:03;;;;;;;4.35;3.00;;;;;;;;;;10407428;28;20051;-48
2021/06/28 22:03:05;;;;;;;5.05;2.95;;;;;;;;;;10414175;28;20136;-53
2021/06/28 22:08:07;;;;;;;4.97;2.95;;;;;;;;;;10415359;28;20141;-51
2021/06/28 22:13:08;;;;;;;4.63;2.90;;;;;;;;;;10409987;28;20531;-49
2021/06/28 22:18:10;;;;;;;7.50;3.00;;;;;;;;;;10406728;28;20389;-49
2021/06/28 22:23:11;;;;;;;6.10;3.13;;;;;;;;;;10443345;28;20053;-54
2021/06/28 22:28:13;;;;;;;6.85;2.90;;;;;;;;;;10436783;28;20099;-52
2021/06/28 22:33:14;;;;;;;4.93;3.13;;;;;;;;;;10430549;28;20048;-54
2021/06/28 22:38:16;;;;;;;5.97;3.10;;;;;;;;;;10443587;28;20059;-53
2021/06/28 22:43:17;;;;;;;7.30;3.58;;;;;;;;;;10437692;28;20182;-53
2021/06/28 22:48:19;;;;;;;5.32;3.17;;;;;;;;;;10442184;28;20103;-54
2021/06/28 22:53:20;;;;;;;8.88;3.25;;;;;;;;;;10444723;28;20140;-52
2021/06/28 22:58:22;;;;;;;6.30;3.95;;;;;;;;;;10434853;28;20159;-53
2021/06/28 23:03:24;;;;;;;5.90;3.67;;;;;;;;;;10434408;28;20049;-53
2021/06/28 23:08:26;;;;;;;5.28;3.40;;;;;;;;;;10440919;28;20056;-52
2021/06/28 23:13:28;;;;;;;5.25;3.42;;;;;;;;;;10437077;28;20468;-49
2021/06/28 23:18:48;;;;;;;6.00;3.33;;;;;;;;;;10418038;28;20445;-49
2021/06/28 23:23:50;;;;;;;4.70;3.92;;;;;;;;;;10438285;28;20055;-53
2021/06/28 23:28:51;;;;;;;6.93;3.95;;;;;;;;;;10442442;28;20053;-54
2021/06/28 23:33:53;;;;;;;5.90;3.80;;;;;;;;;;10438542;28;20135;-55
2021/06/28 23:38:54;;;;;;;5.28;3.88;;;;;;;;;;10446499;28;20107;-53
2021/06/28 23:43:56;;;;;;;6.00;3.83;;;;;;;;;;10438716;28;20049;-53
2021/06/28 23:48:57;;;;;;;7.20;3.83;;;;;;;;;;10441269;28;20049;-53
2021/06/28 23:53:59;;;;;;;5.93;3.80;;;;;;;;;;10435485;28;20045;-53
2021/06/28 23:59:00;;;;;;;8.23;4.28;;;;;;;;;;10427442;28;20120;-53
